sensor_id;sensor_type;location;lat;lon;timestamp;pressure;altitude;pressure_sealevel;temperature;humidity
52745;BME280;38637;49.984;20.426;2022-11-23T00:00:02;98273.78;;;2.36;70.10
52745;BME280;38637;49.984;20.426;2022-11-23T00:02:27;98288.06;;;2.37;69.70
52745;BME280;38637;49.984;20.426;2022-11-23T00:04:52;98288.53;;;2.34;70.38
52745;BME280;38637;49.984;20.426;2022-11-23T00:07:18;98289.34;;;2.34;70.02
52745;BME280;38637;49.984;20.426;2022-11-23T00:09:43;98297.19;;;2.36;70.20
52745;BME280;38637;49.984;20.426;2022-11-23T00:12:08;98284.78;;;2.35;70.38
52745;BME280;38637;49.984;20.426;2022-11-23T00:14:34;98257.16;;;2.16;70.81
52745;BME280;38637;49.984;20.426;2022-11-23T00:16:59;98283.97;;;2.34;70.35
52745;BME280;38637;49.984;20.426;2022-11-23T00:19:25;98281.84;;;2.36;70.48
52745;BME280;38637;49.984;20.426;2022-11-23T00:21:50;98277.28;;;2.37;71.33
52745;BME280;38637;49.984;20.426;2022-11-23T00:24:15;98283.03;;;2.40;71.38
52745;BME280;38637;49.984;20.426;2022-11-23T00:26:41;98284.91;;;2.40;71.64
52745;BME280;38637;49.984;20.426;2022-11-23T00:29:06;98265.31;;;2.33;71.86
52745;BME280;38637;49.984;20.426;2022-11-23T00:31:31;98260.41;;;2.29;71.62
52745;BME280;38637;49.984;20.426;2022-11-23T00:33:57;98286.53;;;2.41;71.91
52745;BME280;38637;49.984;20.426;2022-11-23T00:36:24;98286.53;;;2.41;71.63
52745;BME280;38637;49.984;20.426;2022-11-23T00:38:50;98293.91;;;2.34;71.79
52745;BME280;38637;49.984;20.426;2022-11-23T00:41:17;98288.28;;;2.35;71.95
52745;BME280;38637;49.984;20.426;2022-11-23T00:43:43;98286.88;;;2.33;72.17
52745;BME280;38637;49.984;20.426;2022-11-23T00:46:11;98298.38;;;2.40;71.84
52745;BME280;38637;49.984;20.426;2022-11-23T00:48:37;98304.56;;;2.40;72.09
52745;BME280;38637;49.984;20.426;2022-11-23T00:51:05;98301.63;;;2.42;72.29
52745;BME280;38637;49.984;20.426;2022-11-23T00:53:30;98294.94;;;2.44;71.53
52745;BME280;38637;49.984;20.426;2022-11-23T00:55:56;98296.59;;;2.45;72.00
52745;BME280;38637;49.984;20.426;2022-11-23T00:58:22;98295.53;;;2.46;72.14
52745;BME280;38637;49.984;20.426;2022-11-23T01:00:47;98297.44;;;2.46;71.96
52745;BME280;38637;49.984;20.426;2022-11-23T01:03:13;98285.84;;;2.45;71.95
52745;BME280;38637;49.984;20.426;2022-11-23T01:05:39;98296.13;;;2.48;71.50
52745;BME280;38637;49.984;20.426;2022-11-23T01:08:04;98292.25;;;2.44;71.33
52745;BME280;38637;49.984;20.426;2022-11-23T01:10:30;98293.66;;;2.47;71.48
52745;BME280;38637;49.984;20.426;2022-11-23T01:12:56;98291.78;;;2.47;71.74
52745;BME280;38637;49.984;20.426;2022-11-23T01:15:21;98299.88;;;2.47;71.41
52745;BME280;38637;49.984;20.426;2022-11-23T01:17:46;98298.47;;;2.45;71.57
52745;BME280;38637;49.984;20.426;2022-11-23T01:20:11;98302.94;;;2.39;71.66
52745;BME280;38637;49.984;20.426;2022-11-23T01:22:37;98300.81;;;2.41;71.85
52745;BME280;38637;49.984;20.426;2022-11-23T01:25:02;98287.72;;;2.33;71.68
52745;BME280;38637;49.984;20.426;2022-11-23T01:27:28;98294.84;;;2.39;71.66
52745;BME280;38637;49.984;20.426;2022-11-23T01:29:53;98295.66;;;2.40;71.63
52745;BME280;38637;49.984;20.426;2022-11-23T01:32:18;98292.63;;;2.36;71.43
52745;BME280;38637;49.984;20.426;2022-11-23T01:34:44;98306.66;;;2.38;72.36
52745;BME280;38637;49.984;20.426;2022-11-23T01:37:09;98293.53;;;2.42;72.06
52745;BME280;38637;49.984;20.426;2022-11-23T01:39:34;98301.63;;;2.42;72.22
52745;BME280;38637;49.984;20.426;2022-11-23T01:42:00;98296.22;;;2.42;71.94
52745;BME280;38637;49.984;20.426;2022-11-23T01:44:29;98297.91;;;2.43;71.95
52745;BME280;38637;49.984;20.426;2022-11-23T01:46:57;98297.56;;;2.39;72.00
52745;BME280;38637;49.984;20.426;2022-11-23T01:49:24;98277.41;;;2.30;72.11
52745;BME280;38637;49.984;20.426;2022-11-23T01:51:51;98306.53;;;2.45;71.78
52745;BME280;38637;49.984;20.426;2022-11-23T01:54:24;98297.44;;;2.46;71.48
52745;BME280;38637;49.984;20.426;2022-11-23T01:57:00;98284.78;;;2.35;72.02
52745;BME280;38637;49.984;20.426;2022-11-23T01:59:29;98289.34;;;2.34;72.27
52745;BME280;38637;49.984;20.426;2022-11-23T02:01:54;98276.00;;;2.27;72.05
52745;BME280;38637;49.984;20.426;2022-11-23T02:04:26;98282.06;;;2.35;72.46
52745;BME280;38637;49.984;20.426;2022-11-23T02:06:54;98282.91;;;2.35;72.26
52745;BME280;38637;49.984;20.426;2022-11-23T02:09:20;98279.97;;;2.37;72.17
52745;BME280;38637;49.984;20.426;2022-11-23T02:11:46;98271.66;;;2.38;72.07
52745;BME280;38637;49.984;20.426;2022-11-23T02:14:12;98286.66;;;2.46;72.27
52745;BME280;38637;49.984;20.426;2022-11-23T02:16:37;98286.31;;;2.42;72.35
52745;BME280;38637;49.984;20.426;2022-11-23T02:19:07;98282.19;;;2.40;71.91
52745;BME280;38637;49.984;20.426;2022-11-23T02:21:39;98276.81;;;2.40;71.91
52745;BME280;38637;49.984;20.426;2022-11-23T02:24:19;98284.09;;;2.39;72.52
52745;BME280;38637;49.984;20.426;2022-11-23T02:26:47;98274.00;;;2.35;72.59
52745;BME280;38637;49.984;20.426;2022-11-23T02:29:15;98283.47;;;2.49;72.13
52745;BME280;38637;49.984;20.426;2022-11-23T02:31:41;98271.50;;;2.45;72.45
52745;BME280;38637;49.984;20.426;2022-11-23T02:34:07;98272.69;;;2.49;72.41
52745;BME280;38637;49.984;20.426;2022-11-23T02:36:38;98264.63;;;2.49;72.36
52745;BME280;38637;49.984;20.426;2022-11-23T02:39:15;98268.94;;;2.50;72.53
52745;BME280;38637;49.984;20.426;2022-11-23T02:41:52;98266.84;;;2.52;72.62
52745;BME280;38637;49.984;20.426;2022-11-23T02:46:58;98271.75;;;2.55;72.38
52745;BME280;38637;49.984;20.426;2022-11-23T02:49:24;98259.78;;;2.51;73.22
52745;BME280;38637;49.984;20.426;2022-11-23T02:51:50;98240.38;;;2.37;72.85
52745;BME280;38637;49.984;20.426;2022-11-23T02:54:16;98269.53;;;2.52;73.15
52745;BME280;38637;49.984;20.426;2022-11-23T02:56:41;98272.22;;;2.52;73.19
52745;BME280;38637;49.984;20.426;2022-11-23T02:59:07;98266.25;;;2.50;73.35
52745;BME280;38637;49.984;20.426;2022-11-23T03:01:32;98272.44;;;2.50;74.05
52745;BME280;38637;49.984;20.426;2022-11-23T03:03:57;98269.19;;;2.48;74.12
52745;BME280;38637;49.984;20.426;2022-11-23T03:06:23;98272.22;;;2.52;74.05
52745;BME280;38637;49.984;20.426;2022-11-23T03:08:48;98272.78;;;2.54;73.78
52745;BME280;38637;49.984;20.426;2022-11-23T03:11:13;98274.94;;;2.52;73.79
52745;BME280;38637;49.984;20.426;2022-11-23T03:13:39;98279.72;;;2.50;74.36
52745;BME280;38637;49.984;20.426;2022-11-23T03:16:04;98279.13;;;2.48;74.22
52745;BME280;38637;49.984;20.426;2022-11-23T03:18:30;98264.63;;;2.37;74.16
52745;BME280;38637;49.984;20.426;2022-11-23T03:21:03;98262.41;;;2.34;74.03
52745;BME280;38637;49.984;20.426;2022-11-23T03:23:29;98277.28;;;2.48;74.55
52745;BME280;38637;49.984;20.426;2022-11-23T03:25:56;98272.78;;;2.54;74.78
52745;BME280;38637;49.984;20.426;2022-11-23T03:28:21;98269.88;;;2.56;74.21
52745;BME280;38637;49.984;20.426;2022-11-23T03:30:47;98268.72;;;2.51;73.98
52745;BME280;38637;49.984;20.426;2022-11-23T03:33:12;98276.34;;;2.55;74.08
52745;BME280;38637;49.984;20.426;2022-11-23T03:35:38;98279.94;;;2.60;74.20
52745;BME280;38637;49.984;20.426;2022-11-23T03:38:03;98274.78;;;2.59;74.16
52745;BME280;38637;49.984;20.426;2022-11-23T03:40:29;98276.53;;;2.65;74.26
52745;BME280;38637;49.984;20.426;2022-11-23T03:42:54;98270.81;;;2.61;74.21
52745;BME280;38637;49.984;20.426;2022-11-23T03:45:20;98277.81;;;2.62;73.62
52745;BME280;38637;49.984;20.426;2022-11-23T03:47:45;98279.13;;;2.60;73.89
52745;BME280;38637;49.984;20.426;2022-11-23T03:50:11;98285.22;;;2.67;73.72
52745;BME280;38637;49.984;20.426;2022-11-23T03:52:36;98278.75;;;2.68;74.01
52745;BME280;38637;49.984;20.426;2022-11-23T03:55:05;98282.75;;;2.65;73.40
52745;BME280;38637;49.984;20.426;2022-11-23T03:57:31;98287.78;;;2.62;73.43
52745;BME280;38637;49.984;20.426;2022-11-23T03:59:56;98281.94;;;2.53;73.45
52745;BME280;38637;49.984;20.426;2022-11-23T04:02:21;98286.03;;;2.56;73.52
52745;BME280;38637;49.984;20.426;2022-11-23T04:04:47;98263.56;;;2.50;74.16
52745;BME280;38637;49.984;20.426;2022-11-23T04:07:12;98285.44;;;2.53;73.81
52745;BME280;38637;49.984;20.426;2022-11-23T04:09:37;98280.31;;;2.52;73.84
52745;BME280;38637;49.984;20.426;2022-11-23T04:12:03;98301.63;;;2.53;74.41
52745;BME280;38637;49.984;20.426;2022-11-23T04:14:28;98284.19;;;2.44;74.49
52745;BME280;38637;49.984;20.426;2022-11-23T04:16:54;98292.03;;;2.46;75.04
52745;BME280;38637;49.984;20.426;2022-11-23T04:19:19;98299.19;;;2.40;75.00
52745;BME280;38637;49.984;20.426;2022-11-23T04:21:44;98286.88;;;2.33;75.37
52745;BME280;38637;49.984;20.426;2022-11-23T04:24:09;98290.88;;;2.30;76.08
52745;BME280;38637;49.984;20.426;2022-11-23T04:26:35;98288.41;;;2.28;76.03
52745;BME280;38637;49.984;20.426;2022-11-23T04:29:00;98257.38;;;2.14;76.18
52745;BME280;38637;49.984;20.426;2022-11-23T04:31:26;98279.63;;;2.21;76.16
52745;BME280;38637;49.984;20.426;2022-11-23T04:33:51;98269.78;;;2.15;77.01
52745;BME280;38637;49.984;20.426;2022-11-23T04:36:16;98275.53;;;2.07;77.33
52745;BME280;38637;49.984;20.426;2022-11-23T04:38:42;98284.06;;;2.04;77.80
52745;BME280;38637;49.984;20.426;2022-11-23T04:41:07;98286.63;;;1.99;77.95
52745;BME280;38637;49.984;20.426;2022-11-23T04:43:32;98297.50;;;1.92;78.08
52745;BME280;38637;49.984;20.426;2022-11-23T04:45:58;98287.78;;;1.79;79.04
52745;BME280;38637;49.984;20.426;2022-11-23T04:48:23;98270.66;;;1.62;79.16
52745;BME280;38637;49.984;20.426;2022-11-23T04:50:48;98291.25;;;1.68;79.68
52745;BME280;38637;49.984;20.426;2022-11-23T04:53:14;98279.16;;;1.35;80.97
52745;BME280;38637;49.984;20.426;2022-11-23T04:55:39;98281.03;;;1.47;81.40
52745;BME280;38637;49.984;20.426;2022-11-23T04:58:04;98280.34;;;1.51;81.06
52745;BME280;38637;49.984;20.426;2022-11-23T05:00:30;98270.66;;;1.50;81.39
52745;BME280;38637;49.984;20.426;2022-11-23T05:02:58;98294.47;;;1.47;81.21
52745;BME280;38637;49.984;20.426;2022-11-23T05:05:24;98287.84;;;1.49;81.25
52745;BME280;38637;49.984;20.426;2022-11-23T05:07:49;98288.06;;;1.48;81.62
52745;BME280;38637;49.984;20.426;2022-11-23T05:10:15;98282.91;;;1.46;81.19
52745;BME280;38637;49.984;20.426;2022-11-23T05:12:40;98297.53;;;1.38;82.19
52745;BME280;38637;49.984;20.426;2022-11-23T05:15:05;98289.81;;;1.42;81.89
52745;BME280;38637;49.984;20.426;2022-11-23T05:17:31;98302.91;;;1.38;82.25
52745;BME280;38637;49.984;20.426;2022-11-23T05:19:58;98303.34;;;1.35;81.93
52745;BME280;38637;49.984;20.426;2022-11-23T05:22:23;98306.16;;;1.41;82.29
52745;BME280;38637;49.984;20.426;2022-11-23T05:24:49;98311.19;;;1.37;82.20
52745;BME280;38637;49.984;20.426;2022-11-23T05:27:14;98301.53;;;1.18;83.00
52745;BME280;38637;49.984;20.426;2022-11-23T05:29:39;98301.47;;;1.06;83.78
52745;BME280;38637;49.984;20.426;2022-11-23T05:32:05;98300.09;;;1.15;83.95
52745;BME280;38637;49.984;20.426;2022-11-23T05:34:30;98297.69;;;1.25;83.54
52745;BME280;38637;49.984;20.426;2022-11-23T05:36:56;98280.88;;;1.30;82.85
52745;BME280;38637;49.984;20.426;2022-11-23T05:39:21;98282.19;;;1.39;82.90
52745;BME280;38637;49.984;20.426;2022-11-23T05:41:47;98298.19;;;1.34;82.90
52745;BME280;38637;49.984;20.426;2022-11-23T05:44:12;98297.63;;;1.32;82.92
52745;BME280;38637;49.984;20.426;2022-11-23T05:46:38;98289.13;;;1.17;83.73
52745;BME280;38637;49.984;20.426;2022-11-23T05:49:03;98297.13;;;1.23;83.78
52745;BME280;38637;49.984;20.426;2022-11-23T05:51:28;98296.06;;;1.24;83.71
52745;BME280;38637;49.984;20.426;2022-11-23T05:53:54;98295.59;;;1.27;83.64
52745;BME280;38637;49.984;20.426;2022-11-23T05:56:21;98289.72;;;1.19;83.77
52745;BME280;38637;49.984;20.426;2022-11-23T05:58:46;98316.47;;;1.13;84.22
52745;BME280;38637;49.984;20.426;2022-11-23T06:01:12;98314.75;;;1.01;85.18
52745;BME280;38637;49.984;20.426;2022-11-23T06:03:37;98320.44;;;1.11;84.88
52745;BME280;38637;49.984;20.426;2022-11-23T06:06:03;98319.06;;;1.20;84.82
52745;BME280;38637;49.984;20.426;2022-11-23T06:08:28;98318.47;;;1.18;84.64
52745;BME280;38637;49.984;20.426;2022-11-23T06:10:54;98335.66;;;1.17;85.03
52745;BME280;38637;49.984;20.426;2022-11-23T06:13:19;98339.78;;;1.20;84.81
52745;BME280;38637;49.984;20.426;2022-11-23T06:15:44;98346.19;;;1.19;84.96
52745;BME280;38637;49.984;20.426;2022-11-23T06:18:09;98351.66;;;1.12;85.32
52745;BME280;38637;49.984;20.426;2022-11-23T06:20:35;98353.06;;;1.14;85.30
52745;BME280;38637;49.984;20.426;2022-11-23T06:23:00;98314.28;;;0.92;85.54
52745;BME280;38637;49.984;20.426;2022-11-23T06:25:26;98361.09;;;1.33;85.32
52745;BME280;38637;49.984;20.426;2022-11-23T06:27:53;98361.53;;;1.48;84.92
52745;BME280;38637;49.984;20.426;2022-11-23T06:30:19;98356.66;;;1.57;84.31
52745;BME280;38637;49.984;20.426;2022-11-23T06:32:44;98365.78;;;1.68;83.73
52745;BME280;38637;49.984;20.426;2022-11-23T06:35:09;98332.34;;;1.64;83.54
52745;BME280;38637;49.984;20.426;2022-11-23T06:37:35;98337.25;;;1.67;82.88
52745;BME280;38637;49.984;20.426;2022-11-23T06:40:00;98337.16;;;1.73;82.61
52745;BME280;38637;49.984;20.426;2022-11-23T06:42:25;98353.16;;;1.68;82.80
52745;BME280;38637;49.984;20.426;2022-11-23T06:44:51;98345.28;;;1.55;83.91
52745;BME280;38637;49.984;20.426;2022-11-23T06:47:16;98354.53;;;1.59;83.49
52745;BME280;38637;49.984;20.426;2022-11-23T06:49:41;98351.06;;;1.70;83.61
52745;BME280;38637;49.984;20.426;2022-11-23T06:52:07;98347.56;;;1.70;83.30
52745;BME280;38637;49.984;20.426;2022-11-23T06:54:32;98347.69;;;1.75;83.57
52745;BME280;38637;49.984;20.426;2022-11-23T06:56:57;98349.53;;;1.74;83.54
52745;BME280;38637;49.984;20.426;2022-11-23T06:59:23;98343.13;;;1.75;83.38
52745;BME280;38637;49.984;20.426;2022-11-23T07:01:48;98340.09;;;1.72;83.64
52745;BME280;38637;49.984;20.426;2022-11-23T07:04:14;98330.31;;;1.59;84.00
52745;BME280;38637;49.984;20.426;2022-11-23T07:06:40;98342.13;;;1.58;84.67
52745;BME280;38637;49.984;20.426;2022-11-23T07:09:05;98339.91;;;1.55;84.92
52745;BME280;38637;49.984;20.426;2022-11-23T07:11:31;98342.38;;;1.68;84.84
52745;BME280;38637;49.984;20.426;2022-11-23T07:13:56;98338.06;;;1.67;84.90
52745;BME280;38637;49.984;20.426;2022-11-23T07:16:21;98332.78;;;1.60;85.05
52745;BME280;38637;49.984;20.426;2022-11-23T07:18:47;98338.44;;;1.71;84.67
52745;BME280;38637;49.984;20.426;2022-11-23T07:21:12;98344.38;;;1.61;85.08
52745;BME280;38637;49.984;20.426;2022-11-23T07:23:37;98333.84;;;1.59;85.23
52745;BME280;38637;49.984;20.426;2022-11-23T07:26:06;98315.22;;;1.58;85.16
52745;BME280;38637;49.984;20.426;2022-11-23T07:28:32;98333.41;;;1.74;85.40
52745;BME280;38637;49.984;20.426;2022-11-23T07:30:57;98335.28;;;1.74;85.06
52745;BME280;38637;49.984;20.426;2022-11-23T07:33:22;98337.50;;;1.77;84.97
52745;BME280;38637;49.984;20.426;2022-11-23T07:35:48;98343.53;;;1.91;84.92
52745;BME280;38637;49.984;20.426;2022-11-23T07:38:13;98345.03;;;1.98;84.25
52745;BME280;38637;49.984;20.426;2022-11-23T07:40:38;98349.75;;;2.03;84.03
52745;BME280;38637;49.984;20.426;2022-11-23T07:43:05;98341.06;;;2.01;83.71
52745;BME280;38637;49.984;20.426;2022-11-23T07:45:31;98323.94;;;1.72;84.43
52745;BME280;38637;49.984;20.426;2022-11-23T07:48:01;98353.47;;;1.90;84.49
52745;BME280;38637;49.984;20.426;2022-11-23T07:50:28;98327.59;;;1.89;84.88
52745;BME280;38637;49.984;20.426;2022-11-23T07:52:53;98325.13;;;1.88;84.86
52745;BME280;38637;49.984;20.426;2022-11-23T07:55:19;98320.31;;;1.90;84.41
52745;BME280;38637;49.984;20.426;2022-11-23T07:57:44;98329.34;;;1.95;84.13
52745;BME280;38637;49.984;20.426;2022-11-23T08:00:10;98330.06;;;1.91;84.04
52745;BME280;38637;49.984;20.426;2022-11-23T08:02:36;98331.81;;;1.97;84.63
52745;BME280;38637;49.984;20.426;2022-11-23T08:05:02;98340.28;;;2.12;84.14
52745;BME280;38637;49.984;20.426;2022-11-23T08:07:27;98331.94;;;2.02;84.74
52745;BME280;38637;49.984;20.426;2022-11-23T08:09:52;98330.56;;;1.99;84.76
52745;BME280;38637;49.984;20.426;2022-11-23T08:12:18;98320.56;;;1.88;85.32
52745;BME280;38637;49.984;20.426;2022-11-23T08:14:43;98329.34;;;1.95;85.66
52745;BME280;38637;49.984;20.426;2022-11-23T08:17:09;98328.31;;;2.08;85.20
52745;BME280;38637;49.984;20.426;2022-11-23T08:19:34;98339.56;;;2.17;84.90
52745;BME280;38637;49.984;20.426;2022-11-23T08:21:59;98313.34;;;2.00;84.53
52745;BME280;38637;49.984;20.426;2022-11-23T08:24:25;98321.28;;;2.07;84.19
52745;BME280;38637;49.984;20.426;2022-11-23T08:26:50;98349.19;;;2.24;84.87
52745;BME280;38637;49.984;20.426;2022-11-23T08:29:15;98344.84;;;2.35;84.10
52745;BME280;38637;49.984;20.426;2022-11-23T08:31:41;98344.03;;;2.35;83.85
52745;BME280;38637;49.984;20.426;2022-11-23T08:34:06;98350.13;;;2.42;84.04
52745;BME280;38637;49.984;20.426;2022-11-23T08:36:31;98332.91;;;2.43;83.92
52745;BME280;38637;49.984;20.426;2022-11-23T08:38:57;98337.25;;;2.56;83.41
52745;BME280;38637;49.984;20.426;2022-11-23T08:41:22;98341.81;;;2.43;83.11
52745;BME280;38637;49.984;20.426;2022-11-23T08:43:47;98310.66;;;2.36;83.65
52745;BME280;38637;49.984;20.426;2022-11-23T08:46:13;98331.84;;;2.56;83.16
52745;BME280;38637;49.984;20.426;2022-11-23T08:48:38;98326.81;;;2.47;83.82
52745;BME280;38637;49.984;20.426;2022-11-23T08:51:04;98300.13;;;2.34;83.80
52745;BME280;38637;49.984;20.426;2022-11-23T08:53:29;98338.31;;;2.43;83.35
52745;BME280;38637;49.984;20.426;2022-11-23T08:55:55;98341.47;;;2.28;84.08
52745;BME280;38637;49.984;20.426;2022-11-23T08:58:20;98327.88;;;2.23;84.63
52745;BME280;38637;49.984;20.426;2022-11-23T09:00:45;98314.38;;;2.11;84.50
52745;BME280;38637;49.984;20.426;2022-11-23T09:03:10;98321.78;;;2.27;84.85
52745;BME280;38637;49.984;20.426;2022-11-23T09:05:37;98303.50;;;2.29;84.70
52745;BME280;38637;49.984;20.426;2022-11-23T09:08:02;98304.69;;;2.34;83.48
52745;BME280;38637;49.984;20.426;2022-11-23T09:10:28;98330.56;;;2.35;83.36
52745;BME280;38637;49.984;20.426;2022-11-23T09:12:54;98326.94;;;2.29;83.38
52745;BME280;38637;49.984;20.426;2022-11-23T09:15:19;98323.56;;;2.34;83.39
52745;BME280;38637;49.984;20.426;2022-11-23T09:17:45;98326.91;;;2.17;83.04
52745;BME280;38637;49.984;20.426;2022-11-23T09:20:11;98317.47;;;2.15;83.79
52745;BME280;38637;49.984;20.426;2022-11-23T09:22:36;98330.53;;;2.11;83.75
52745;BME280;38637;49.984;20.426;2022-11-23T09:25:02;98337.13;;;2.15;83.62
52745;BME280;38637;49.984;20.426;2022-11-23T09:27:28;98317.19;;;2.04;83.15
52745;BME280;38637;49.984;20.426;2022-11-23T09:29:53;98330.31;;;2.13;82.99
52745;BME280;38637;49.984;20.426;2022-11-23T09:32:19;98324.94;;;2.24;83.25
52745;BME280;38637;49.984;20.426;2022-11-23T09:34:44;98327.28;;;2.33;83.05
52745;BME280;38637;49.984;20.426;2022-11-23T09:37:10;98325.06;;;2.29;82.65
52745;BME280;38637;49.984;20.426;2022-11-23T09:39:36;98327.66;;;2.24;82.66
52745;BME280;38637;49.984;20.426;2022-11-23T09:42:20;98327.88;;;2.23;83.09
52745;BME280;38637;49.984;20.426;2022-11-23T09:45:10;98334.31;;;2.22;82.71
52745;BME280;38637;49.984;20.426;2022-11-23T09:50:21;98320.13;;;2.26;82.82
52745;BME280;38637;49.984;20.426;2022-11-23T09:52:51;98302.00;;;2.34;82.67
52745;BME280;38637;49.984;20.426;2022-11-23T09:57:51;98289.56;;;2.33;82.54
52745;BME280;38637;49.984;20.426;2022-11-23T10:00:22;98299.88;;;2.47;82.72
52745;BME280;38637;49.984;20.426;2022-11-23T10:02:48;98301.41;;;2.55;82.40
52745;BME280;38637;49.984;20.426;2022-11-23T10:05:19;98298.34;;;2.63;81.80
52745;BME280;38637;49.984;20.426;2022-11-23T10:10:43;98291.91;;;2.64;81.49
52745;BME280;38637;49.984;20.426;2022-11-23T10:13:44;98275.84;;;2.69;80.86
52745;BME280;38637;49.984;20.426;2022-11-23T10:16:56;98283.81;;;2.52;81.32
52745;BME280;38637;49.984;20.426;2022-11-23T10:22:07;98297.41;;;2.69;81.38
52745;BME280;38637;49.984;20.426;2022-11-23T10:24:39;98295.63;;;2.75;81.69
52745;BME280;38637;49.984;20.426;2022-11-23T10:27:15;98290.59;;;2.79;80.89
52745;BME280;38637;49.984;20.426;2022-11-23T10:29:43;98293.47;;;2.89;80.59
52745;BME280;38637;49.984;20.426;2022-11-23T10:35:06;98276.50;;;2.88;80.33
52745;BME280;38637;49.984;20.426;2022-11-23T10:37:40;98286.69;;;2.86;79.93
52745;BME280;38637;49.984;20.426;2022-11-23T10:42:53;98270.84;;;2.90;80.47
52745;BME280;38637;49.984;20.426;2022-11-23T10:45:23;98264.84;;;2.99;80.54
52745;BME280;38637;49.984;20.426;2022-11-23T10:47:57;98268.44;;;3.05;80.60
52745;BME280;38637;49.984;20.426;2022-11-23T10:52:54;98268.94;;;3.02;79.66
52745;BME280;38637;49.984;20.426;2022-11-23T10:55:24;98261.09;;;3.01;79.53
52745;BME280;38637;49.984;20.426;2022-11-23T10:57:51;98247.84;;;2.99;80.38
52745;BME280;38637;49.984;20.426;2022-11-23T11:00:18;98256.25;;;3.03;79.43
52745;BME280;38637;49.984;20.426;2022-11-23T11:02:46;98257.78;;;3.10;79.58
52745;BME280;38637;49.984;20.426;2022-11-23T11:05:27;98263.66;;;3.07;79.79
52745;BME280;38637;49.984;20.426;2022-11-23T11:07:54;98265.28;;;3.08;79.93
52745;BME280;38637;49.984;20.426;2022-11-23T11:15:54;98263.66;;;3.07;79.61
52745;BME280;38637;49.984;20.426;2022-11-23T11:18:20;98262.56;;;3.08;79.76
52745;BME280;38637;49.984;20.426;2022-11-23T11:20:45;98242.44;;;2.99;79.00
52745;BME280;38637;49.984;20.426;2022-11-23T11:23:17;98264.28;;;2.97;79.75
52745;BME280;38637;49.984;20.426;2022-11-23T11:25:46;98256.53;;;3.01;80.08
52745;BME280;38637;49.984;20.426;2022-11-23T11:28:35;98226.66;;;2.91;79.92
52745;BME280;38637;49.984;20.426;2022-11-23T11:31:36;98254.59;;;3.13;79.78
52745;BME280;38637;49.984;20.426;2022-11-23T11:34:05;98240.03;;;3.14;79.53
52745;BME280;38637;49.984;20.426;2022-11-23T11:36:39;98248.63;;;3.11;79.40
52745;BME280;38637;49.984;20.426;2022-11-23T11:39:12;98234.94;;;3.01;79.92
52745;BME280;38637;49.984;20.426;2022-11-23T11:41:39;98230.84;;;2.98;78.94
52745;BME280;38637;49.984;20.426;2022-11-23T11:44:12;98251.56;;;3.10;79.22
52745;BME280;38637;49.984;20.426;2022-11-23T11:46:45;98250.16;;;3.07;79.73
52745;BME280;38637;49.984;20.426;2022-11-23T11:49:11;98253.53;;;3.14;79.39
52745;BME280;38637;49.984;20.426;2022-11-23T11:51:40;98244.78;;;3.07;79.46
52745;BME280;38637;49.984;20.426;2022-11-23T11:56:54;98248.81;;;2.93;79.96
52745;BME280;38637;49.984;20.426;2022-11-23T11:59:40;98251.78;;;2.80;80.69
52745;BME280;38637;49.984;20.426;2022-11-23T12:02:25;98252.22;;;2.88;80.21
52745;BME280;38637;49.984;20.426;2022-11-23T12:05:14;98250.31;;;3.01;80.55
52745;BME280;38637;49.984;20.426;2022-11-23T12:13:12;98240.19;;;3.08;79.59
52745;BME280;38637;49.984;20.426;2022-11-23T12:15:43;98255.09;;;3.27;80.08
52745;BME280;38637;49.984;20.426;2022-11-23T12:18:32;98258.16;;;3.31;78.93
52745;BME280;38637;49.984;20.426;2022-11-23T12:27:08;98225.59;;;3.20;78.49
52745;BME280;38637;49.984;20.426;2022-11-23T12:29:57;98246.97;;;3.39;78.89
52745;BME280;38637;49.984;20.426;2022-11-23T12:47:38;98229.94;;;3.21;79.07
52745;BME280;38637;49.984;20.426;2022-11-23T12:50:19;98248.50;;;3.35;78.96
52745;BME280;38637;49.984;20.426;2022-11-23T12:58:42;98222.66;;;3.22;79.87
52745;BME280;38637;49.984;20.426;2022-11-23T13:01:20;98237.06;;;3.28;78.92
52745;BME280;38637;49.984;20.426;2022-11-23T13:09:47;98253.34;;;3.04;79.77
52745;BME280;38637;49.984;20.426;2022-11-23T13:18:11;98251.97;;;2.90;80.36
52745;BME280;38637;49.984;20.426;2022-11-23T13:20:48;98247.34;;;2.73;81.23
52745;BME280;38637;49.984;20.426;2022-11-23T13:23:23;98245.38;;;2.57;82.02
52745;BME280;38637;49.984;20.426;2022-11-23T13:28:36;98253.84;;;2.49;82.92
52745;BME280;38637;49.984;20.426;2022-11-23T13:31:21;98258.63;;;2.47;82.84
52745;BME280;38637;49.984;20.426;2022-11-23T13:33:50;98259.94;;;2.44;82.57
52745;BME280;38637;49.984;20.426;2022-11-23T13:36:36;98252.56;;;2.28;83.09
52745;BME280;38637;49.984;20.426;2022-11-23T13:39:06;98256.09;;;2.28;83.41
52745;BME280;38637;49.984;20.426;2022-11-23T13:41:59;98269.09;;;2.32;82.97
52745;BME280;38637;49.984;20.426;2022-11-23T13:44:27;98252.22;;;2.13;83.72
52745;BME280;38637;49.984;20.426;2022-11-23T13:46:56;98270.50;;;2.22;84.04
52745;BME280;38637;49.984;20.426;2022-11-23T13:49:32;98270.38;;;2.17;83.95
52745;BME280;38637;49.984;20.426;2022-11-23T13:57:38;98259.09;;;2.44;83.04
52745;BME280;38637;49.984;20.426;2022-11-23T14:09:27;98282.19;;;2.28;83.34
52745;BME280;38637;49.984;20.426;2022-11-23T14:14:46;98270.38;;;2.17;84.18
52745;BME280;38637;49.984;20.426;2022-11-23T14:20:45;98275.53;;;2.19;84.21
52745;BME280;38637;49.984;20.426;2022-11-23T14:35:07;98272.38;;;2.34;83.87
52745;BME280;38637;49.984;20.426;2022-11-23T14:40:52;98284.28;;;2.61;82.91
52745;BME280;38637;49.984;20.426;2022-11-23T14:43:20;98278.16;;;2.66;83.29
52745;BME280;38637;49.984;20.426;2022-11-23T14:45:46;98277.81;;;2.74;82.11
52745;BME280;38637;49.984;20.426;2022-11-23T14:48:21;98284.72;;;2.82;81.68
52745;BME280;38637;49.984;20.426;2022-11-23T14:50:58;98289.03;;;2.83;81.26
52745;BME280;38637;49.984;20.426;2022-11-23T14:53:28;98286.09;;;2.84;81.04
52745;BME280;38637;49.984;20.426;2022-11-23T14:55:55;98289.03;;;2.83;80.30